sensor_id;sensor_type;location;lat;lon;timestamp;P1;durP1;ratioP1;P2;durP2;ratioP2
37445;SDS011;23307;51.136;14.942;2024-02-15T00:00:04;8.57;;;7.00;;
37445;SDS011;23307;51.136;14.942;2024-02-15T00:02:30;7.90;;;5.80;;
37445;SDS011;23307;51.136;14.942;2024-02-15T00:04:56;9.30;;;6.88;;
37445;SDS011;23307;51.136;14.942;2024-02-15T00:07:21;9.52;;;6.05;;
37445;SDS011;23307;51.136;14.942;2024-02-15T00:09:48;8.25;;;6.57;;
37445;SDS011;23307;51.136;14.942;2024-02-15T00:12:13;8.10;;;6.32;;
37445;SDS011;23307;51.136;14.942;2024-02-15T00:14:39;8.88;;;6.80;;
37445;SDS011;23307;51.136;14.942;2024-02-15T00:17:05;7.38;;;6.65;;
37445;SDS011;23307;51.136;14.942;2024-02-15T00:19:30;8.63;;;6.60;;
37445;SDS011;23307;51.136;14.942;2024-02-15T00:21:56;8.48;;;6.45;;
37445;SDS011;23307;51.136;14.942;2024-02-15T00:24:22;9.07;;;6.72;;
37445;SDS011;23307;51.136;14.942;2024-02-15T00:26:49;8.57;;;6.20;;
37445;SDS011;23307;51.136;14.942;2024-02-15T00:29:14;8.82;;;6.68;;
37445;SDS011;23307;51.136;14.942;2024-02-15T00:31:40;9.30;;;6.68;;
37445;SDS011;23307;51.136;14.942;2024-02-15T00:34:05;9.75;;;7.03;;
37445;SDS011;23307;51.136;14.942;2024-02-15T00:36:31;9.50;;;7.00;;
37445;SDS011;23307;51.136;14.942;2024-02-15T00:39:00;8.20;;;6.53;;
37445;SDS011;23307;51.136;14.942;2024-02-15T00:41:26;8.52;;;7.22;;
37445;SDS011;23307;51.136;14.942;2024-02-15T00:43:52;8.07;;;6.97;;
37445;SDS011;23307;51.136;14.942;2024-02-15T00:46:18;6.90;;;6.20;;
37445;SDS011;23307;51.136;14.942;2024-02-15T00:48:43;7.60;;;6.60;;
37445;SDS011;23307;51.136;14.942;2024-02-15T00:51:09;9.05;;;5.93;;
37445;SDS011;23307;51.136;14.942;2024-02-15T00:53:34;7.88;;;6.57;;
37445;SDS011;23307;51.136;14.942;2024-02-15T00:56:00;8.32;;;6.68;;
37445;SDS011;23307;51.136;14.942;2024-02-15T00:58:26;8.77;;;6.63;;
37445;SDS011;23307;51.136;14.942;2024-02-15T01:00:52;8.27;;;6.78;;
37445;SDS011;23307;51.136;14.942;2024-02-15T01:03:18;7.78;;;6.40;;
37445;SDS011;23307;51.136;14.942;2024-02-15T01:05:44;9.00;;;7.03;;
37445;SDS011;23307;51.136;14.942;2024-02-15T01:08:10;8.82;;;6.80;;
37445;SDS011;23307;51.136;14.942;2024-02-15T01:10:36;9.98;;;6.32;;
37445;SDS011;23307;51.136;14.942;2024-02-15T01:13:01;8.45;;;7.07;;
37445;SDS011;23307;51.136;14.942;2024-02-15T01:15:27;8.13;;;6.68;;
37445;SDS011;23307;51.136;14.942;2024-02-15T01:17:53;8.80;;;6.18;;
37445;SDS011;23307;51.136;14.942;2024-02-15T01:20:18;8.20;;;6.53;;
37445;SDS011;23307;51.136;14.942;2024-02-15T01:22:46;8.43;;;6.32;;
37445;SDS011;23307;51.136;14.942;2024-02-15T01:25:11;8.65;;;6.22;;
37445;SDS011;23307;51.136;14.942;2024-02-15T01:27:38;8.55;;;6.60;;
37445;SDS011;23307;51.136;14.942;2024-02-15T01:30:04;7.00;;;6.00;;
37445;SDS011;23307;51.136;14.942;2024-02-15T01:32:30;7.97;;;6.07;;
37445;SDS011;23307;51.136;14.942;2024-02-15T01:34:56;7.50;;;6.50;;
37445;SDS011;23307;51.136;14.942;2024-02-15T01:37:21;11.23;;;6.55;;
37445;SDS011;23307;51.136;14.942;2024-02-15T01:39:47;6.88;;;6.18;;
37445;SDS011;23307;51.136;14.942;2024-02-15T01:42:12;7.07;;;6.35;;
37445;SDS011;23307;51.136;14.942;2024-02-15T01:44:39;7.32;;;6.07;;
37445;SDS011;23307;51.136;14.942;2024-02-15T01:47:09;8.40;;;6.43;;
37445;SDS011;23307;51.136;14.942;2024-02-15T01:49:35;8.50;;;6.38;;
37445;SDS011;23307;51.136;14.942;2024-02-15T01:52:01;9.75;;;6.75;;
37445;SDS011;23307;51.136;14.942;2024-02-15T01:54:29;7.65;;;6.15;;
37445;SDS011;23307;51.136;14.942;2024-02-15T01:56:55;7.63;;;5.97;;
37445;SDS011;23307;51.136;14.942;2024-02-15T01:59:21;7.82;;;6.35;;
37445;SDS011;23307;51.136;14.942;2024-02-15T02:01:48;7.22;;;6.28;;
37445;SDS011;23307;51.136;14.942;2024-02-15T02:04:15;7.00;;;6.30;;
37445;SDS011;23307;51.136;14.942;2024-02-15T02:06:40;8.48;;;6.55;;
37445;SDS011;23307;51.136;14.942;2024-02-15T02:09:06;8.02;;;6.45;;
37445;SDS011;23307;51.136;14.942;2024-02-15T02:11:37;7.72;;;6.22;;
37445;SDS011;23307;51.136;14.942;2024-02-15T02:14:03;9.27;;;6.70;;
37445;SDS011;23307;51.136;14.942;2024-02-15T02:16:29;8.77;;;6.43;;
37445;SDS011;23307;51.136;14.942;2024-02-15T02:19:00;8.82;;;7.20;;
37445;SDS011;23307;51.136;14.942;2024-02-15T02:21:26;8.82;;;6.75;;
37445;SDS011;23307;51.136;14.942;2024-02-15T02:23:53;8.63;;;7.50;;
37445;SDS011;23307;51.136;14.942;2024-02-15T02:26:21;7.47;;;6.28;;
37445;SDS011;23307;51.136;14.942;2024-02-15T02:28:48;7.90;;;6.78;;
37445;SDS011;23307;51.136;14.942;2024-02-15T02:31:14;9.50;;;6.93;;
37445;SDS011;23307;51.136;14.942;2024-02-15T02:33:41;8.52;;;6.80;;
37445;SDS011;23307;51.136;14.942;2024-02-15T02:36:25;7.63;;;6.65;;
37445;SDS011;23307;51.136;14.942;2024-02-15T02:38:51;8.70;;;6.55;;
37445;SDS011;23307;51.136;14.942;2024-02-15T02:41:17;10.00;;;6.68;;
37445;SDS011;23307;51.136;14.942;2024-02-15T02:43:44;11.50;;;7.07;;
37445;SDS011;23307;51.136;14.942;2024-02-15T02:46:10;8.05;;;6.65;;
37445;SDS011;23307;51.136;14.942;2024-02-15T02:48:37;8.43;;;6.53;;
37445;SDS011;23307;51.136;14.942;2024-02-15T02:51:03;8.35;;;6.28;;
37445;SDS011;23307;51.136;14.942;2024-02-15T02:53:28;9.88;;;6.90;;
37445;SDS011;23307;51.136;14.942;2024-02-15T02:55:55;8.60;;;7.10;;
37445;SDS011;23307;51.136;14.942;2024-02-15T02:58:21;7.85;;;7.05;;
37445;SDS011;23307;51.136;14.942;2024-02-15T03:00:48;8.40;;;7.45;;
37445;SDS011;23307;51.136;14.942;2024-02-15T03:03:14;8.57;;;6.50;;
37445;SDS011;23307;51.136;14.942;2024-02-15T03:05:40;7.35;;;6.10;;
37445;SDS011;23307;51.136;14.942;2024-02-15T03:08:06;10.88;;;6.88;;
37445;SDS011;23307;51.136;14.942;2024-02-15T03:10:37;9.27;;;7.70;;
37445;SDS011;23307;51.136;14.942;2024-02-15T03:13:03;9.45;;;7.45;;
37445;SDS011;23307;51.136;14.942;2024-02-15T03:15:30;9.43;;;7.57;;
37445;SDS011;23307;51.136;14.942;2024-02-15T03:17:58;7.53;;;6.78;;
37445;SDS011;23307;51.136;14.942;2024-02-15T03:20:23;9.15;;;7.15;;
37445;SDS011;23307;51.136;14.942;2024-02-15T03:22:58;8.75;;;7.40;;
37445;SDS011;23307;51.136;14.942;2024-02-15T03:25:25;9.32;;;7.68;;
37445;SDS011;23307;51.136;14.942;2024-02-15T03:27:54;8.02;;;7.20;;
37445;SDS011;23307;51.136;14.942;2024-02-15T03:30:24;9.40;;;7.70;;
37445;SDS011;23307;51.136;14.942;2024-02-15T03:32:51;10.88;;;7.78;;
37445;SDS011;23307;51.136;14.942;2024-02-15T03:35:17;10.60;;;7.30;;
37445;SDS011;23307;51.136;14.942;2024-02-15T03:37:44;10.40;;;8.43;;
37445;SDS011;23307;51.136;14.942;2024-02-15T03:40:10;10.10;;;8.18;;
37445;SDS011;23307;51.136;14.942;2024-02-15T03:42:35;9.98;;;7.95;;
37445;SDS011;23307;51.136;14.942;2024-02-15T03:45:04;9.07;;;8.07;;
37445;SDS011;23307;51.136;14.942;2024-02-15T03:47:31;9.80;;;7.78;;
37445;SDS011;23307;51.136;14.942;2024-02-15T03:49:58;9.13;;;8.23;;
37445;SDS011;23307;51.136;14.942;2024-02-15T03:52:24;9.45;;;7.80;;
37445;SDS011;23307;51.136;14.942;2024-02-15T03:54:50;12.63;;;8.57;;
37445;SDS011;23307;51.136;14.942;2024-02-15T03:57:15;10.35;;;9.25;;
37445;SDS011;23307;51.136;14.942;2024-02-15T03:59:42;10.52;;;8.00;;
37445;SDS011;23307;51.136;14.942;2024-02-15T04:02:07;11.00;;;8.82;;
37445;SDS011;23307;51.136;14.942;2024-02-15T04:04:37;12.68;;;9.15;;
37445;SDS011;23307;51.136;14.942;2024-02-15T04:07:06;9.85;;;8.25;;
37445;SDS011;23307;51.136;14.942;2024-02-15T04:09:32;11.90;;;8.35;;
37445;SDS011;23307;51.136;14.942;2024-02-15T04:12:00;12.85;;;9.02;;
37445;SDS011;23307;51.136;14.942;2024-02-15T04:14:26;10.27;;;9.18;;
37445;SDS011;23307;51.136;14.942;2024-02-15T04:16:51;10.50;;;9.40;;
37445;SDS011;23307;51.136;14.942;2024-02-15T04:19:17;11.63;;;9.70;;
37445;SDS011;23307;51.136;14.942;2024-02-15T04:21:45;11.93;;;8.98;;
37445;SDS011;23307;51.136;14.942;2024-02-15T04:24:11;12.20;;;9.25;;
37445;SDS011;23307;51.136;14.942;2024-02-15T04:26:37;12.95;;;9.68;;
37445;SDS011;23307;51.136;14.942;2024-02-15T04:29:03;13.63;;;9.70;;
37445;SDS011;23307;51.136;14.942;2024-02-15T04:31:29;16.15;;;11.15;;
37445;SDS011;23307;51.136;14.942;2024-02-15T04:33:56;13.38;;;10.18;;
37445;SDS011;23307;51.136;14.942;2024-02-15T04:36:21;12.57;;;10.77;;
37445;SDS011;23307;51.136;14.942;2024-02-15T04:38:51;13.70;;;10.43;;
37445;SDS011;23307;51.136;14.942;2024-02-15T04:41:17;14.40;;;10.77;;
37445;SDS011;23307;51.136;14.942;2024-02-15T04:43:51;11.75;;;10.57;;
37445;SDS011;23307;51.136;14.942;2024-02-15T04:46:20;12.63;;;10.52;;
37445;SDS011;23307;51.136;14.942;2024-02-15T04:48:49;13.80;;;10.05;;
37445;SDS011;23307;51.136;14.942;2024-02-15T04:51:15;13.18;;;10.32;;
37445;SDS011;23307;51.136;14.942;2024-02-15T04:53:41;13.32;;;10.43;;
37445;SDS011;23307;51.136;14.942;2024-02-15T04:56:14;13.32;;;11.32;;
37445;SDS011;23307;51.136;14.942;2024-02-15T04:58:40;13.40;;;10.60;;
37445;SDS011;23307;51.136;14.942;2024-02-15T05:01:15;14.77;;;10.25;;
37445;SDS011;23307;51.136;14.942;2024-02-15T05:03:42;11.13;;;9.88;;
37445;SDS011;23307;51.136;14.942;2024-02-15T05:06:07;14.23;;;10.00;;
37445;SDS011;23307;51.136;14.942;2024-02-15T05:08:34;12.90;;;10.10;;
37445;SDS011;23307;51.136;14.942;2024-02-15T05:11:07;17.40;;;13.70;;
37445;SDS011;23307;51.136;14.942;2024-02-15T05:13:39;12.98;;;10.30;;
37445;SDS011;23307;51.136;14.942;2024-02-15T05:16:05;11.43;;;9.90;;
37445;SDS011;23307;51.136;14.942;2024-02-15T05:18:31;16.90;;;11.38;;
37445;SDS011;23307;51.136;14.942;2024-02-15T05:20:56;12.32;;;11.02;;
37445;SDS011;23307;51.136;14.942;2024-02-15T05:23:22;14.48;;;11.40;;
37445;SDS011;23307;51.136;14.942;2024-02-15T05:25:47;13.50;;;10.30;;
37445;SDS011;23307;51.136;14.942;2024-02-15T05:28:13;13.50;;;10.15;;
37445;SDS011;23307;51.136;14.942;2024-02-15T05:30:38;11.27;;;9.98;;
37445;SDS011;23307;51.136;14.942;2024-02-15T05:33:04;16.77;;;14.57;;
37445;SDS011;23307;51.136;14.942;2024-02-15T05:35:30;20.40;;;17.77;;
37445;SDS011;23307;51.136;14.942;2024-02-15T05:37:56;12.40;;;9.77;;
37445;SDS011;23307;51.136;14.942;2024-02-15T05:40:21;18.25;;;14.60;;
37445;SDS011;23307;51.136;14.942;2024-02-15T05:42:47;23.90;;;18.33;;
37445;SDS011;23307;51.136;14.942;2024-02-15T05:47:51;22.13;;;15.30;;
37445;SDS011;23307;51.136;14.942;2024-02-15T05:50:17;19.98;;;13.20;;
37445;SDS011;23307;51.136;14.942;2024-02-15T05:52:45;30.05;;;20.23;;
37445;SDS011;23307;51.136;14.942;2024-02-15T05:55:11;20.75;;;14.27;;
37445;SDS011;23307;51.136;14.942;2024-02-15T05:57:41;23.77;;;16.27;;
37445;SDS011;23307;51.136;14.942;2024-02-15T06:00:10;19.85;;;13.88;;
37445;SDS011;23307;51.136;14.942;2024-02-15T06:02:36;38.08;;;21.75;;
37445;SDS011;23307;51.136;14.942;2024-02-15T06:05:03;22.73;;;13.80;;
37445;SDS011;23307;51.136;14.942;2024-02-15T06:07:30;20.73;;;13.27;;
37445;SDS011;23307;51.136;14.942;2024-02-15T06:09:57;21.65;;;13.93;;
37445;SDS011;23307;51.136;14.942;2024-02-15T06:12:27;17.05;;;12.63;;
37445;SDS011;23307;51.136;14.942;2024-02-15T06:14:53;14.35;;;11.43;;
37445;SDS011;23307;51.136;14.942;2024-02-15T06:17:19;17.73;;;13.10;;
37445;SDS011;23307;51.136;14.942;2024-02-15T06:19:44;14.77;;;12.25;;
37445;SDS011;23307;51.136;14.942;2024-02-15T06:22:10;13.02;;;9.93;;
37445;SDS011;23307;51.136;14.942;2024-02-15T06:24:37;12.73;;;9.77;;
37445;SDS011;23307;51.136;14.942;2024-02-15T06:27:02;16.65;;;12.38;;
37445;SDS011;23307;51.136;14.942;2024-02-15T06:29:28;12.68;;;10.63;;
37445;SDS011;23307;51.136;14.942;2024-02-15T06:32:13;15.00;;;11.85;;
37445;SDS011;23307;51.136;14.942;2024-02-15T06:35:11;14.73;;;11.57;;
37445;SDS011;23307;51.136;14.942;2024-02-15T06:37:55;12.15;;;10.82;;
37445;SDS011;23307;51.136;14.942;2024-02-15T06:40:39;12.00;;;10.77;;
37445;SDS011;23307;51.136;14.942;2024-02-15T06:43:05;14.60;;;11.00;;
37445;SDS011;23307;51.136;14.942;2024-02-15T06:45:30;14.38;;;11.70;;
37445;SDS011;23307;51.136;14.942;2024-02-15T06:47:57;12.70;;;11.40;;
37445;SDS011;23307;51.136;14.942;2024-02-15T06:50:23;12.73;;;10.75;;
37445;SDS011;23307;51.136;14.942;2024-02-15T06:52:48;13.23;;;11.80;;
37445;SDS011;23307;51.136;14.942;2024-02-15T06:55:16;14.68;;;11.68;;
37445;SDS011;23307;51.136;14.942;2024-02-15T06:57:44;15.68;;;11.82;;
37445;SDS011;23307;51.136;14.942;2024-02-15T07:00:09;15.80;;;12.68;;
37445;SDS011;23307;51.136;14.942;2024-02-15T07:02:40;12.55;;;10.88;;
37445;SDS011;23307;51.136;14.942;2024-02-15T07:05:06;14.23;;;11.70;;
37445;SDS011;23307;51.136;14.942;2024-02-15T07:07:32;15.98;;;12.05;;
37445;SDS011;23307;51.136;14.942;2024-02-15T07:09:59;14.02;;;11.73;;
37445;SDS011;23307;51.136;14.942;2024-02-15T07:12:27;13.00;;;11.60;;
37445;SDS011;23307;51.136;14.942;2024-02-15T07:14:53;14.52;;;12.27;;
37445;SDS011;23307;51.136;14.942;2024-02-15T07:17:19;15.88;;;12.27;;
37445;SDS011;23307;51.136;14.942;2024-02-15T07:19:45;13.90;;;11.75;;
37445;SDS011;23307;51.136;14.942;2024-02-15T07:22:14;12.98;;;11.55;;
37445;SDS011;23307;51.136;14.942;2024-02-15T07:24:40;13.93;;;11.32;;
37445;SDS011;23307;51.136;14.942;2024-02-15T07:27:05;13.65;;;12.18;;
37445;SDS011;23307;51.136;14.942;2024-02-15T07:29:31;13.55;;;11.75;;
37445;SDS011;23307;51.136;14.942;2024-02-15T07:31:57;12.65;;;10.63;;
37445;SDS011;23307;51.136;14.942;2024-02-15T07:34:27;12.95;;;11.48;;
37445;SDS011;23307;51.136;14.942;2024-02-15T07:36:52;13.63;;;11.13;;
37445;SDS011;23307;51.136;14.942;2024-02-15T07:39:18;12.15;;;10.80;;
37445;SDS011;23307;51.136;14.942;2024-02-15T07:41:52;13.85;;;10.55;;
37445;SDS011;23307;51.136;14.942;2024-02-15T07:44:18;16.92;;;11.57;;
37445;SDS011;23307;51.136;14.942;2024-02-15T07:46:43;14.35;;;11.85;;
37445;SDS011;23307;51.136;14.942;2024-02-15T07:49:10;13.75;;;12.27;;
37445;SDS011;23307;51.136;14.942;2024-02-15T07:51:36;13.32;;;11.00;;
37445;SDS011;23307;51.136;14.942;2024-02-15T07:54:02;14.10;;;11.23;;
37445;SDS011;23307;51.136;14.942;2024-02-15T07:56:28;14.73;;;11.68;;
37445;SDS011;23307;51.136;14.942;2024-02-15T07:58:53;15.82;;;12.35;;
37445;SDS011;23307;51.136;14.942;2024-02-15T08:01:19;12.35;;;10.75;;
37445;SDS011;23307;51.136;14.942;2024-02-15T08:03:48;14.18;;;12.40;;
37445;SDS011;23307;51.136;14.942;2024-02-15T08:06:14;13.55;;;11.75;;
37445;SDS011;23307;51.136;14.942;2024-02-15T08:08:41;13.88;;;11.23;;
37445;SDS011;23307;51.136;14.942;2024-02-15T08:11:10;12.73;;;10.23;;
37445;SDS011;23307;51.136;14.942;2024-02-15T08:13:46;13.18;;;11.05;;
37445;SDS011;23307;51.136;14.942;2024-02-15T08:16:19;13.35;;;11.10;;
37445;SDS011;23307;51.136;14.942;2024-02-15T08:18:54;12.20;;;10.13;;
37445;SDS011;23307;51.136;14.942;2024-02-15T08:21:26;13.23;;;10.57;;
37445;SDS011;23307;51.136;14.942;2024-02-15T08:23:54;14.80;;;11.95;;
37445;SDS011;23307;51.136;14.942;2024-02-15T08:26:20;12.88;;;10.93;;
37445;SDS011;23307;51.136;14.942;2024-02-15T08:31:12;13.60;;;10.55;;
37445;SDS011;23307;51.136;14.942;2024-02-15T08:33:40;14.23;;;11.75;;
37445;SDS011;23307;51.136;14.942;2024-02-15T08:36:06;15.43;;;11.75;;
37445;SDS011;23307;51.136;14.942;2024-02-15T08:38:32;12.93;;;11.30;;
37445;SDS011;23307;51.136;14.942;2024-02-15T08:40:59;13.38;;;11.45;;
37445;SDS011;23307;51.136;14.942;2024-02-15T08:43:24;14.75;;;11.55;;
37445;SDS011;23307;51.136;14.942;2024-02-15T08:45:50;13.77;;;11.07;;
37445;SDS011;23307;51.136;14.942;2024-02-15T08:48:15;13.23;;;11.10;;
37445;SDS011;23307;51.136;14.942;2024-02-15T08:50:41;13.82;;;11.18;;
37445;SDS011;23307;51.136;14.942;2024-02-15T08:53:07;12.25;;;10.40;;
37445;SDS011;23307;51.136;14.942;2024-02-15T08:55:32;13.10;;;10.40;;
37445;SDS011;23307;51.136;14.942;2024-02-15T08:58:00;13.25;;;10.60;;
37445;SDS011;23307;51.136;14.942;2024-02-15T09:00:27;13.32;;;10.45;;
37445;SDS011;23307;51.136;14.942;2024-02-15T09:02:53;13.77;;;10.00;;
37445;SDS011;23307;51.136;14.942;2024-02-15T09:05:18;13.27;;;10.75;;
37445;SDS011;23307;51.136;14.942;2024-02-15T09:07:47;12.38;;;10.60;;
37445;SDS011;23307;51.136;14.942;2024-02-15T09:10:13;11.98;;;10.13;;
37445;SDS011;23307;51.136;14.942;2024-02-15T09:12:40;13.38;;;10.63;;
37445;SDS011;23307;51.136;14.942;2024-02-15T09:15:07;14.18;;;10.80;;
37445;SDS011;23307;51.136;14.942;2024-02-15T09:17:36;11.57;;;9.90;;
37445;SDS011;23307;51.136;14.942;2024-02-15T09:22:32;13.40;;;10.55;;
37445;SDS011;23307;51.136;14.942;2024-02-15T09:24:57;12.52;;;10.10;;
37445;SDS011;23307;51.136;14.942;2024-02-15T09:27:23;11.40;;;9.82;;
37445;SDS011;23307;51.136;14.942;2024-02-15T09:29:48;15.20;;;11.30;;
37445;SDS011;23307;51.136;14.942;2024-02-15T09:32:14;15.85;;;10.73;;
37445;SDS011;23307;51.136;14.942;2024-02-15T09:34:40;13.75;;;10.98;;
37445;SDS011;23307;51.136;14.942;2024-02-15T09:37:06;14.57;;;11.77;;
37445;SDS011;23307;51.136;14.942;2024-02-15T09:39:32;13.00;;;11.05;;
37445;SDS011;23307;51.136;14.942;2024-02-15T09:41:57;12.98;;;10.95;;
37445;SDS011;23307;51.136;14.942;2024-02-15T09:44:24;12.88;;;10.98;;
37445;SDS011;23307;51.136;14.942;2024-02-15T09:46:55;13.40;;;10.57;;
37445;SDS011;23307;51.136;14.942;2024-02-15T09:49:37;14.35;;;11.07;;
37445;SDS011;23307;51.136;14.942;2024-02-15T09:52:05;14.70;;;10.93;;
37445;SDS011;23307;51.136;14.942;2024-02-15T09:54:36;12.65;;;10.65;;
37445;SDS011;23307;51.136;14.942;2024-02-15T09:57:04;12.35;;;10.10;;
37445;SDS011;23307;51.136;14.942;2024-02-15T09:59:30;11.23;;;9.77;;
37445;SDS011;23307;51.136;14.942;2024-02-15T10:01:58;12.40;;;10.25;;
37445;SDS011;23307;51.136;14.942;2024-02-15T10:04:24;10.88;;;9.65;;
37445;SDS011;23307;51.136;14.942;2024-02-15T10:06:50;12.48;;;9.88;;
37445;SDS011;23307;51.136;14.942;2024-02-15T10:09:29;11.35;;;10.00;;
37445;SDS011;23307;51.136;14.942;2024-02-15T10:11:59;12.88;;;10.60;;
37445;SDS011;23307;51.136;14.942;2024-02-15T10:14:28;12.75;;;10.35;;
37445;SDS011;23307;51.136;14.942;2024-02-15T10:16:54;14.98;;;11.20;;
37445;SDS011;23307;51.136;14.942;2024-02-15T10:19:21;13.18;;;10.75;;
37445;SDS011;23307;51.136;14.942;2024-02-15T10:21:52;10.80;;;9.57;;
37445;SDS011;23307;51.136;14.942;2024-02-15T10:24:20;12.10;;;10.52;;
37445;SDS011;23307;51.136;14.942;2024-02-15T10:26:48;12.23;;;10.80;;
37445;SDS011;23307;51.136;14.942;2024-02-15T10:29:14;11.70;;;10.48;;
37445;SDS011;23307;51.136;14.942;2024-02-15T10:31:56;12.48;;;10.45;;
37445;SDS011;23307;51.136;14.942;2024-02-15T10:34:26;13.80;;;10.18;;
37445;SDS011;23307;51.136;14.942;2024-02-15T10:36:55;12.70;;;10.27;;
37445;SDS011;23307;51.136;14.942;2024-02-15T10:39:37;11.75;;;9.90;;
37445;SDS011;23307;51.136;14.942;2024-02-15T10:42:03;11.48;;;10.02;;
37445;SDS011;23307;51.136;14.942;2024-02-15T10:44:31;12.30;;;10.57;;
37445;SDS011;23307;51.136;14.942;2024-02-15T10:46:59;11.65;;;10.25;;
37445;SDS011;23307;51.136;14.942;2024-02-15T10:49:25;12.10;;;10.32;;
37445;SDS011;23307;51.136;14.942;2024-02-15T10:51:56;11.68;;;9.82;;
37445;SDS011;23307;51.136;14.942;2024-02-15T10:54:34;12.52;;;10.55;;
37445;SDS011;23307;51.136;14.942;2024-02-15T10:57:08;12.75;;;10.48;;
37445;SDS011;23307;51.136;14.942;2024-02-15T10:59:35;12.00;;;10.60;;
37445;SDS011;23307;51.136;14.942;2024-02-15T11:02:26;11.85;;;10.20;;
37445;SDS011;23307;51.136;14.942;2024-02-15T11:05:01;12.90;;;11.57;;
37445;SDS011;23307;51.136;14.942;2024-02-15T11:07:30;11.80;;;10.15;;
37445;SDS011;23307;51.136;14.942;2024-02-15T11:09:57;12.02;;;10.18;;
37445;SDS011;23307;51.136;14.942;2024-02-15T11:12:24;11.77;;;10.50;;
37445;SDS011;23307;51.136;14.942;2024-02-15T11:14:51;11.80;;;10.27;;
37445;SDS011;23307;51.136;14.942;2024-02-15T11:20:02;10.85;;;9.75;;
37445;SDS011;23307;51.136;14.942;2024-02-15T11:22:34;12.07;;;10.80;;
37445;SDS011;23307;51.136;14.942;2024-02-15T11:25:03;12.00;;;10.70;;
37445;SDS011;23307;51.136;14.942;2024-02-15T11:27:34;10.57;;;9.48;;
37445;SDS011;23307;51.136;14.942;2024-02-15T11:30:02;10.88;;;9.30;;
37445;SDS011;23307;51.136;14.942;2024-02-15T11:32:35;10.40;;;9.30;;
37445;SDS011;23307;51.136;14.942;2024-02-15T11:35:05;11.13;;;9.63;;
37445;SDS011;23307;51.136;14.942;2024-02-15T11:40:13;10.35;;;9.25;;
37445;SDS011;23307;51.136;14.942;2024-02-15T11:42:41;11.43;;;9.98;;
37445;SDS011;23307;51.136;14.942;2024-02-15T11:45:08;14.15;;;12.43;;
37445;SDS011;23307;51.136;14.942;2024-02-15T11:47:36;11.93;;;10.70;;
37445;SDS011;23307;51.136;14.942;2024-02-15T11:50:14;9.70;;;8.70;;
37445;SDS011;23307;51.136;14.942;2024-02-15T11:52:43;10.07;;;8.80;;
37445;SDS011;23307;51.136;14.942;2024-02-15T11:55:10;9.18;;;8.23;;
37445;SDS011;23307;51.136;14.942;2024-02-15T11:57:38;10.77;;;9.68;;
37445;SDS011;23307;51.136;14.942;2024-02-15T12:00:19;11.50;;;10.00;;
37445;SDS011;23307;51.136;14.942;2024-02-15T12:03:03;9.82;;;8.82;;
37445;SDS011;23307;51.136;14.942;2024-02-15T12:05:49;11.20;;;10.07;;
37445;SDS011;23307;51.136;14.942;2024-02-15T12:08:34;9.50;;;8.52;;
37445;SDS011;23307;51.136;14.942;2024-02-15T12:11:19;9.40;;;8.40;;
37445;SDS011;23307;51.136;14.942;2024-02-15T12:14:14;9.23;;;8.20;;
37445;SDS011;23307;51.136;14.942;2024-02-15T12:16:59;9.38;;;8.32;;
37445;SDS011;23307;51.136;14.942;2024-02-15T12:19:44;9.40;;;8.40;;
37445;SDS011;23307;51.136;14.942;2024-02-15T12:22:11;8.93;;;8.05;;
37445;SDS011;23307;51.136;14.942;2024-02-15T12:24:37;8.73;;;7.85;;
37445;SDS011;23307;51.136;14.942;2024-02-15T12:27:02;8.65;;;7.75;;
37445;SDS011;23307;51.136;14.942;2024-02-15T12:29:28;10.80;;;7.80;;
37445;SDS011;23307;51.136;14.942;2024-02-15T12:31:54;8.55;;;7.75;;
37445;SDS011;23307;51.136;14.942;2024-02-15T12:34:20;8.30;;;7.50;;
37445;SDS011;23307;51.136;14.942;2024-02-15T12:36:46;9.25;;;8.00;;
37445;SDS011;23307;51.136;14.942;2024-02-15T12:39:14;9.55;;;8.52;;
37445;SDS011;23307;51.136;14.942;2024-02-15T12:41:49;7.15;;;6.43;;
37445;SDS011;23307;51.136;14.942;2024-02-15T12:44:18;8.07;;;7.28;;
37445;SDS011;23307;51.136;14.942;2024-02-15T12:46:47;9.15;;;7.90;;
37445;SDS011;23307;51.136;14.942;2024-02-15T12:51:49;12.63;;;8.88;;
37445;SDS011;23307;51.136;14.942;2024-02-15T12:54:19;10.93;;;8.65;;
37445;SDS011;23307;51.136;14.942;2024-02-15T12:56:46;9.48;;;8.48;;
37445;SDS011;23307;51.136;14.942;2024-02-15T12:59:18;9.65;;;8.70;;
37445;SDS011;23307;51.136;14.942;2024-02-15T13:01:46;11.15;;;9.40;;
37445;SDS011;23307;51.136;14.942;2024-02-15T13:04:24;11.40;;;9.73;;
37445;SDS011;23307;51.136;14.942;2024-02-15T13:06:50;11.95;;;10.75;;
37445;SDS011;23307;51.136;14.942;2024-02-15T13:09:16;9.98;;;8.98;;
37445;SDS011;23307;51.136;14.942;2024-02-15T13:11:41;9.30;;;8.40;;
37445;SDS011;23307;51.136;14.942;2024-02-15T13:14:10;9.68;;;8.73;;
37445;SDS011;23307;51.136;14.942;2024-02-15T13:16:36;9.82;;;8.82;;
37445;SDS011;23307;51.136;14.942;2024-02-15T13:19:02;9.10;;;8.20;;
37445;SDS011;23307;51.136;14.942;2024-02-15T13:21:28;8.35;;;7.43;;
37445;SDS011;23307;51.136;14.942;2024-02-15T13:23:55;9.52;;;8.02;;
37445;SDS011;23307;51.136;14.942;2024-02-15T13:26:21;8.45;;;7.63;;
37445;SDS011;23307;51.136;14.942;2024-02-15T13:28:49;8.63;;;7.72;;
37445;SDS011;23307;51.136;14.942;2024-02-15T13:31:15;8.77;;;7.90;;
37445;SDS011;23307;51.136;14.942;2024-02-15T13:33:40;8.65;;;7.75;;
37445;SDS011;23307;51.136;14.942;2024-02-15T13:36:06;9.30;;;7.47;;
37445;SDS011;23307;51.136;14.942;2024-02-15T13:38:35;12.02;;;10.82;;
37445;SDS011;23307;51.136;14.942;2024-02-15T13:41:01;11.80;;;10.25;;
37445;SDS011;23307;51.136;14.942;2024-02-15T13:43:28;8.10;;;7.30;;
37445;SDS011;23307;51.136;14.942;2024-02-15T13:45:54;10.15;;;9.23;;
37445;SDS011;23307;51.136;14.942;2024-02-15T13:48:19;8.75;;;7.88;;
37445;SDS011;23307;51.136;14.942;2024-02-15T13:50:45;10.02;;;8.40;;
37445;SDS011;23307;51.136;14.942;2024-02-15T13:53:11;8.38;;;7.47;;
37445;SDS011;23307;51.136;14.942;2024-02-15T13:55:38;8.60;;;7.70;;
37445;SDS011;23307;51.136;14.942;2024-02-15T13:58:04;9.90;;;8.57;;
37445;SDS011;23307;51.136;14.942;2024-02-15T14:00:32;9.82;;;8.82;;
37445;SDS011;23307;51.136;14.942;2024-02-15T14:02:59;9.35;;;8.30;;
37445;SDS011;23307;51.136;14.942;2024-02-15T14:05:27;10.63;;;9.07;;
37445;SDS011;23307;51.136;14.942;2024-02-15T14:08:00;12.05;;;10.85;;
37445;SDS011;23307;51.136;14.942;2024-02-15T14:10:36;12.23;;;10.95;;
37445;SDS011;23307;51.136;14.942;2024-02-15T14:13:02;10.70;;;9.60;;
37445;SDS011;23307;51.136;14.942;2024-02-15T14:15:29;10.93;;;9.82;;
37445;SDS011;23307;51.136;14.942;2024-02-15T14:17:55;11.63;;;10.35;;
37445;SDS011;23307;51.136;14.942;2024-02-15T14:20:22;11.25;;;10.05;;
37445;SDS011;23307;51.136;14.942;2024-02-15T14:22:49;13.40;;;10.77;;
37445;SDS011;23307;51.136;14.942;2024-02-15T14:25:20;11.55;;;10.35;;
37445;SDS011;23307;51.136;14.942;2024-02-15T14:27:46;12.25;;;10.88;;
37445;SDS011;23307;51.136;14.942;2024-02-15T14:30:12;13.07;;;11.48;;
37445;SDS011;23307;51.136;14.942;2024-02-15T14:32:57;12.57;;;11.27;;
37445;SDS011;23307;51.136;14.942;2024-02-15T14:35:32;13.68;;;11.82;;
37445;SDS011;23307;51.136;14.942;2024-02-15T14:38:10;13.15;;;11.65;;
37445;SDS011;23307;51.136;14.942;2024-02-15T14:40:38;14.55;;;12.27;;